Gokay K — TCHF — position and weather

sailwx.info

Track history (hours):
 
Tides and Currents Weather Stations Pressure Air Temp Water Temp Dewpoint Dewpoint Depression Visibility Wind Speed Wind Dir Waves Ship Positions

Gokay K

Last reported at 2015-May-06 13:29 UTC. Time now 2015-May-23 01:18 UTC.
Position N 33°52' E 034°14'.
Warning: this ship's position is 16 days out of date.

; draft 4 m.

Type: Ship. MMSI: 271000029.

Date/timePositionNaut miles runAvg speedWind from/ knotsBaromVisibWave heightAir tempDewpointWater temp
2015-May-06 13:29N 33°52' E 034°14'1110.6
2015-May-06 12:29N 33°42' E 034°11'1011.1
2015-May-06 11:32N 33°32' E 034°08'2211.1
2015-May-06 09:33N 33°11' E 034°01'16 8.0
2015-May-06 07:33N 33°01' E 034°16'  
2015-May-03 16:29N 32°52' E 035°01'  
2015-Apr-30 19:14N 32°52' E 035°01'0 0.0
2015-Apr-30 03:26N 32°52' E 035°01'0 0.0
2015-Apr-29 20:32N 32°52' E 035°01'0 0.0
2015-Apr-29 12:29N 32°52' E 035°01'3 2.0
2015-Apr-29 11:05N 32°52' E 034°57'5 9.7
2015-Apr-29 10:33N 32°53' E 034°51'10 9.6
2015-Apr-29 09:34N 32°55' E 034°40'9 9.3
2015-Apr-29 08:33N 32°58' E 034°30'9 9.4
2015-Apr-29 07:33N 33°00' E 034°19'9 9.3
2015-Apr-29 06:33N 33°02' E 034°08'9 8.9
2015-Apr-29 05:33N 33°11' E 034°09'8 7.8
2015-Apr-29 04:33N 33°19' E 034°06'9 9.5
2015-Apr-29 03:33N 33°24' E 033°56'9 9.5
2015-Apr-29 02:33N 33°29' E 033°47'22 9.7
2015-Apr-29 00:20N 33°43' E 033°27'810.0
2015-Apr-28 23:33N 33°49' E 033°20'367 8.9
2015-Apr-27 06:06N 37°09' E 027°03'  
Track history (hours):
 
Tides and Currents Weather Stations Pressure Air Temp Water Temp Dewpoint Dewpoint Depression Visibility Wind Speed Wind Dir Waves Ship Positions

Gokay K

Last reported at 2015-May-06 13:29 UTC. Time now 2015-May-23 01:18 UTC.
Position N 33°52' E 034°14'.
Warning: this ship's position is 16 days out of date.

; draft 4 m.

Type: Ship. MMSI: 271000029.

Date/timePositionNaut miles runAvg speedWind from/ knotsBaromVisibWave heightAir tempDewpointWater temp
2015-May-06 13:29N 33°52' E 034°14'1110.6
2015-May-06 12:29N 33°42' E 034°11'1011.1
2015-May-06 11:32N 33°32' E 034°08'2211.1
2015-May-06 09:33N 33°11' E 034°01'16 8.0
2015-May-06 07:33N 33°01' E 034°16'  
2015-May-03 16:29N 32°52' E 035°01'  
2015-Apr-30 19:14N 32°52' E 035°01'0 0.0
2015-Apr-30 03:26N 32°52' E 035°01'0 0.0
2015-Apr-29 20:32N 32°52' E 035°01'0 0.0
2015-Apr-29 12:29N 32°52' E 035°01'3 2.0
2015-Apr-29 11:05N 32°52' E 034°57'5 9.7
2015-Apr-29 10:33N 32°53' E 034°51'10 9.6
2015-Apr-29 09:34N 32°55' E 034°40'9 9.3
2015-Apr-29 08:33N 32°58' E 034°30'9 9.4
2015-Apr-29 07:33N 33°00' E 034°19'9 9.3
2015-Apr-29 06:33N 33°02' E 034°08'9 8.9
2015-Apr-29 05:33N 33°11' E 034°09'8 7.8
2015-Apr-29 04:33N 33°19' E 034°06'9 9.5
2015-Apr-29 03:33N 33°24' E 033°56'9 9.5
2015-Apr-29 02:33N 33°29' E 033°47'22 9.7
2015-Apr-29 00:20N 33°43' E 033°27'810.0
2015-Apr-28 23:33N 33°49' E 033°20'367 8.9
2015-Apr-27 06:06N 37°09' E 027°03'  

Dump ship's entire track history